sensor_id;sensor_type;location;lat;lon;timestamp;temperature;humidity
13694;DHT22;6919;52.344;14.518;2023-04-29T00:01:03;11.20;1.00
13694;DHT22;6919;52.344;14.518;2023-04-29T00:03:32;11.30;1.00
13694;DHT22;6919;52.344;14.518;2023-04-29T00:06:02;11.30;1.00
13694;DHT22;6919;52.344;14.518;2023-04-29T00:08:31;11.30;1.00
13694;DHT22;6919;52.344;14.518;2023-04-29T00:10:59;11.30;1.00
13694;DHT22;6919;52.344;14.518;2023-04-29T00:13:27;11.50;1.00
13694;DHT22;6919;52.344;14.518;2023-04-29T00:15:56;11.50;1.00
13694;DHT22;6919;52.344;14.518;2023-04-29T00:18:24;11.70;1.00
13694;DHT22;6919;52.344;14.518;2023-04-29T00:20:52;11.70;1.00
13694;DHT22;6919;52.344;14.518;2023-04-29T00:23:22;11.50;1.00
13694;DHT22;6919;52.344;14.518;2023-04-29T00:25:50;11.50;1.00
13694;DHT22;6919;52.344;14.518;2023-04-29T00:28:19;11.60;1.00
13694;DHT22;6919;52.344;14.518;2023-04-29T00:30:47;11.70;1.00
13694;DHT22;6919;52.344;14.518;2023-04-29T00:33:15;11.60;1.00
13694;DHT22;6919;52.344;14.518;2023-04-29T00:35:43;11.40;1.00
13694;DHT22;6919;52.344;14.518;2023-04-29T00:38:12;11.40;1.00
13694;DHT22;6919;52.344;14.518;2023-04-29T00:40:42;11.30;1.00
13694;DHT22;6919;52.344;14.518;2023-04-29T00:43:11;11.30;1.00
13694;DHT22;6919;52.344;14.518;2023-04-29T00:45:39;11.20;1.00
13694;DHT22;6919;52.344;14.518;2023-04-29T00:48:07;11.20;1.00
13694;DHT22;6919;52.344;14.518;2023-04-29T00:50:36;11.20;1.00
13694;DHT22;6919;52.344;14.518;2023-04-29T00:53:04;11.30;1.00
13694;DHT22;6919;52.344;14.518;2023-04-29T00:55:34;11.20;1.00
13694;DHT22;6919;52.344;14.518;2023-04-29T00:58:05;11.40;1.00
13694;DHT22;6919;52.344;14.518;2023-04-29T01:00:35;11.30;1.00
13694;DHT22;6919;52.344;14.518;2023-04-29T01:03:04;11.40;1.00
13694;DHT22;6919;52.344;14.518;2023-04-29T01:05:33;11.30;1.00
13694;DHT22;6919;52.344;14.518;2023-04-29T01:08:12;11.20;1.00
13694;DHT22;6919;52.344;14.518;2023-04-29T01:10:54;11.20;1.00
13694;DHT22;6919;52.344;14.518;2023-04-29T01:13:36;11.30;1.00
13694;DHT22;6919;52.344;14.518;2023-04-29T01:16:16;11.30;1.00
13694;DHT22;6919;52.344;14.518;2023-04-29T01:18:52;11.30;1.00
13694;DHT22;6919;52.344;14.518;2023-04-29T01:21:23;11.60;1.00
13694;DHT22;6919;52.344;14.518;2023-04-29T01:23:53;11.50;1.00
13694;DHT22;6919;52.344;14.518;2023-04-29T01:26:23;11.60;1.00
13694;DHT22;6919;52.344;14.518;2023-04-29T01:28:56;11.50;1.00
13694;DHT22;6919;52.344;14.518;2023-04-29T01:31:42;11.40;1.00
13694;DHT22;6919;52.344;14.518;2023-04-29T01:34:21;11.30;1.00
13694;DHT22;6919;52.344;14.518;2023-04-29T01:37:02;11.30;1.00
13694;DHT22;6919;52.344;14.518;2023-04-29T01:39:43;11.20;1.00
13694;DHT22;6919;52.344;14.518;2023-04-29T01:42:17;11.10;1.00
13694;DHT22;6919;52.344;14.518;2023-04-29T01:44:54;11.10;1.00
13694;DHT22;6919;52.344;14.518;2023-04-29T01:47:28;11.10;1.00
13694;DHT22;6919;52.344;14.518;2023-04-29T01:49:57;11.10;1.00
13694;DHT22;6919;52.344;14.518;2023-04-29T01:52:26;11.10;1.50
13694;DHT22;6919;52.344;14.518;2023-04-29T01:54:56;11.10;1.00
13694;DHT22;6919;52.344;14.518;2023-04-29T01:57:24;11.10;1.00
13694;DHT22;6919;52.344;14.518;2023-04-29T01:59:52;11.20;1.00
13694;DHT22;6919;52.344;14.518;2023-04-29T02:02:21;11.20;1.00
13694;DHT22;6919;52.344;14.518;2023-04-29T02:04:51;11.10;1.00
13694;DHT22;6919;52.344;14.518;2023-04-29T02:07:20;11.10;1.00
13694;DHT22;6919;52.344;14.518;2023-04-29T02:09:49;11.10;1.00
13694;DHT22;6919;52.344;14.518;2023-04-29T02:12:19;11.30;1.00
13694;DHT22;6919;52.344;14.518;2023-04-29T02:14:51;11.20;1.00
13694;DHT22;6919;52.344;14.518;2023-04-29T02:17:20;11.50;1.00
13694;DHT22;6919;52.344;14.518;2023-04-29T02:19:48;11.50;1.00
13694;DHT22;6919;52.344;14.518;2023-04-29T02:22:17;11.50;1.00
13694;DHT22;6919;52.344;14.518;2023-04-29T02:24:45;11.50;1.00
13694;DHT22;6919;52.344;14.518;2023-04-29T02:27:14;11.40;1.00
13694;DHT22;6919;52.344;14.518;2023-04-29T02:29:43;11.20;1.00
13694;DHT22;6919;52.344;14.518;2023-04-29T02:32:11;11.10;1.00
13694;DHT22;6919;52.344;14.518;2023-04-29T02:34:41;11.20;4.80
13694;DHT22;6919;52.344;14.518;2023-04-29T02:37:09;11.10;1.00
13694;DHT22;6919;52.344;14.518;2023-04-29T02:39:38;11.10;1.00
13694;DHT22;6919;52.344;14.518;2023-04-29T02:42:07;11.00;6.00
13694;DHT22;6919;52.344;14.518;2023-04-29T02:44:35;11.10;6.50
13694;DHT22;6919;52.344;14.518;2023-04-29T02:47:05;11.10;13.30
13694;DHT22;6919;52.344;14.518;2023-04-29T02:49:33;11.20;9.20
13694;DHT22;6919;52.344;14.518;2023-04-29T02:52:01;11.30;1.00
13694;DHT22;6919;52.344;14.518;2023-04-29T02:54:29;11.50;1.00
13694;DHT22;6919;52.344;14.518;2023-04-29T02:56:58;11.40;1.00
13694;DHT22;6919;52.344;14.518;2023-04-29T02:59:26;11.50;1.00
13694;DHT22;6919;52.344;14.518;2023-04-29T03:01:54;11.40;1.00
13694;DHT22;6919;52.344;14.518;2023-04-29T03:04:24;11.30;1.00
13694;DHT22;6919;52.344;14.518;2023-04-29T03:06:54;11.30;1.00
13694;DHT22;6919;52.344;14.518;2023-04-29T03:09:22;11.10;1.00
13694;DHT22;6919;52.344;14.518;2023-04-29T03:11:51;11.10;1.00
13694;DHT22;6919;52.344;14.518;2023-04-29T03:14:19;11.00;11.00
13694;DHT22;6919;52.344;14.518;2023-04-29T03:16:48;11.00;17.60
13694;DHT22;6919;52.344;14.518;2023-04-29T03:19:16;11.00;19.20
13694;DHT22;6919;52.344;14.518;2023-04-29T03:21:45;11.20;26.20
13694;DHT22;6919;52.344;14.518;2023-04-29T03:24:14;11.20;14.50
13694;DHT22;6919;52.344;14.518;2023-04-29T03:26:42;11.30;14.20
13694;DHT22;6919;52.344;14.518;2023-04-29T03:29:10;11.10;29.70
13694;DHT22;6919;52.344;14.518;2023-04-29T03:31:39;11.10;64.40
13694;DHT22;6919;52.344;14.518;2023-04-29T03:34:07;11.10;77.00
13694;DHT22;6919;52.344;14.518;2023-04-29T03:36:36;11.00;80.00
13694;DHT22;6919;52.344;14.518;2023-04-29T03:39:05;10.90;96.40
13694;DHT22;6919;52.344;14.518;2023-04-29T03:41:34;10.80;99.90
13694;DHT22;6919;52.344;14.518;2023-04-29T03:44:02;10.80;99.90
13694;DHT22;6919;52.344;14.518;2023-04-29T03:46:31;10.80;99.90
13694;DHT22;6919;52.344;14.518;2023-04-29T03:48:59;10.70;99.90
13694;DHT22;6919;52.344;14.518;2023-04-29T03:51:28;10.60;99.90
13694;DHT22;6919;52.344;14.518;2023-04-29T03:53:56;10.70;99.90
13694;DHT22;6919;52.344;14.518;2023-04-29T03:56:26;10.60;99.90
13694;DHT22;6919;52.344;14.518;2023-04-29T03:58:54;10.60;99.90
13694;DHT22;6919;52.344;14.518;2023-04-29T04:01:23;10.60;99.90
13694;DHT22;6919;52.344;14.518;2023-04-29T04:03:52;10.60;99.90
13694;DHT22;6919;52.344;14.518;2023-04-29T04:06:20;10.60;99.90
13694;DHT22;6919;52.344;14.518;2023-04-29T04:08:49;10.60;99.90
13694;DHT22;6919;52.344;14.518;2023-04-29T04:11:17;10.60;99.90
13694;DHT22;6919;52.344;14.518;2023-04-29T04:13:46;10.60;99.90
13694;DHT22;6919;52.344;14.518;2023-04-29T04:16:15;10.70;99.90
13694;DHT22;6919;52.344;14.518;2023-04-29T04:18:43;10.70;99.90
13694;DHT22;6919;52.344;14.518;2023-04-29T04:21:12;10.70;99.90
13694;DHT22;6919;52.344;14.518;2023-04-29T04:23:40;11.00;99.90
13694;DHT22;6919;52.344;14.518;2023-04-29T04:26:09;11.00;99.90
13694;DHT22;6919;52.344;14.518;2023-04-29T04:28:37;11.10;99.90
13694;DHT22;6919;52.344;14.518;2023-04-29T04:31:07;11.10;99.90
13694;DHT22;6919;52.344;14.518;2023-04-29T04:33:35;10.90;99.90
13694;DHT22;6919;52.344;14.518;2023-04-29T04:36:04;11.00;99.90
13694;DHT22;6919;52.344;14.518;2023-04-29T04:38:33;11.20;99.90
13694;DHT22;6919;52.344;14.518;2023-04-29T04:41:01;11.30;99.90
13694;DHT22;6919;52.344;14.518;2023-04-29T04:43:33;11.40;99.90
13694;DHT22;6919;52.344;14.518;2023-04-29T04:46:10;11.30;99.90
13694;DHT22;6919;52.344;14.518;2023-04-29T04:48:40;11.30;99.90
13694;DHT22;6919;52.344;14.518;2023-04-29T04:51:08;11.40;99.90
13694;DHT22;6919;52.344;14.518;2023-04-29T04:53:37;11.20;99.90
13694;DHT22;6919;52.344;14.518;2023-04-29T04:56:06;11.20;99.90
13694;DHT22;6919;52.344;14.518;2023-04-29T04:58:35;11.20;99.90
13694;DHT22;6919;52.344;14.518;2023-04-29T05:01:03;11.30;99.90
13694;DHT22;6919;52.344;14.518;2023-04-29T05:03:33;11.30;99.90
13694;DHT22;6919;52.344;14.518;2023-04-29T05:06:02;11.40;99.90
13694;DHT22;6919;52.344;14.518;2023-04-29T05:08:30;11.40;99.90
13694;DHT22;6919;52.344;14.518;2023-04-29T05:10:58;11.40;99.90
13694;DHT22;6919;52.344;14.518;2023-04-29T05:13:26;11.40;99.90
13694;DHT22;6919;52.344;14.518;2023-04-29T05:15:54;11.60;99.90
13694;DHT22;6919;52.344;14.518;2023-04-29T05:18:23;11.60;99.90
13694;DHT22;6919;52.344;14.518;2023-04-29T05:20:52;11.80;99.90
13694;DHT22;6919;52.344;14.518;2023-04-29T05:23:20;11.80;99.90
13694;DHT22;6919;52.344;14.518;2023-04-29T05:25:49;12.00;99.90
13694;DHT22;6919;52.344;14.518;2023-04-29T05:28:21;12.00;99.90
13694;DHT22;6919;52.344;14.518;2023-04-29T05:30:50;12.00;99.90
13694;DHT22;6919;52.344;14.518;2023-04-29T05:33:18;12.00;99.90
13694;DHT22;6919;52.344;14.518;2023-04-29T05:35:48;12.10;99.90
13694;DHT22;6919;52.344;14.518;2023-04-29T05:38:17;11.80;99.90
13694;DHT22;6919;52.344;14.518;2023-04-29T05:40:45;11.90;99.90
13694;DHT22;6919;52.344;14.518;2023-04-29T05:43:15;12.00;99.90
13694;DHT22;6919;52.344;14.518;2023-04-29T05:45:46;12.30;99.90
13694;DHT22;6919;52.344;14.518;2023-04-29T05:48:14;12.40;99.90
13694;DHT22;6919;52.344;14.518;2023-04-29T05:50:42;12.50;99.90
13694;DHT22;6919;52.344;14.518;2023-04-29T05:53:11;12.50;99.90
13694;DHT22;6919;52.344;14.518;2023-04-29T05:55:42;12.60;99.90
13694;DHT22;6919;52.344;14.518;2023-04-29T05:58:15;12.60;99.90
13694;DHT22;6919;52.344;14.518;2023-04-29T06:00:43;12.30;99.90
13694;DHT22;6919;52.344;14.518;2023-04-29T06:03:14;12.30;99.90
13694;DHT22;6919;52.344;14.518;2023-04-29T06:05:43;12.20;99.90
13694;DHT22;6919;52.344;14.518;2023-04-29T06:08:13;12.40;99.90
13694;DHT22;6919;52.344;14.518;2023-04-29T06:10:42;12.30;99.90
13694;DHT22;6919;52.344;14.518;2023-04-29T06:13:11;12.30;99.90
13694;DHT22;6919;52.344;14.518;2023-04-29T06:15:39;12.20;99.90
13694;DHT22;6919;52.344;14.518;2023-04-29T06:18:08;12.10;99.90
13694;DHT22;6919;52.344;14.518;2023-04-29T06:20:36;12.20;99.90
13694;DHT22;6919;52.344;14.518;2023-04-29T06:23:05;12.20;99.90
13694;DHT22;6919;52.344;14.518;2023-04-29T06:25:33;12.10;99.90
13694;DHT22;6919;52.344;14.518;2023-04-29T06:28:03;12.00;99.90
13694;DHT22;6919;52.344;14.518;2023-04-29T06:30:34;12.10;99.90
13694;DHT22;6919;52.344;14.518;2023-04-29T06:33:02;12.20;99.90
13694;DHT22;6919;52.344;14.518;2023-04-29T06:35:31;12.20;99.90
13694;DHT22;6919;52.344;14.518;2023-04-29T06:38:00;12.20;99.90
13694;DHT22;6919;52.344;14.518;2023-04-29T06:40:28;12.30;99.90
13694;DHT22;6919;52.344;14.518;2023-04-29T06:42:56;12.30;99.90
13694;DHT22;6919;52.344;14.518;2023-04-29T06:45:25;12.50;99.90
13694;DHT22;6919;52.344;14.518;2023-04-29T06:47:54;12.60;99.90
13694;DHT22;6919;52.344;14.518;2023-04-29T06:50:22;12.70;99.90
13694;DHT22;6919;52.344;14.518;2023-04-29T06:52:52;12.80;99.90
13694;DHT22;6919;52.344;14.518;2023-04-29T06:55:20;12.80;99.90
13694;DHT22;6919;52.344;14.518;2023-04-29T06:57:48;13.10;99.90
13694;DHT22;6919;52.344;14.518;2023-04-29T07:00:17;13.20;99.90
13694;DHT22;6919;52.344;14.518;2023-04-29T07:02:48;13.40;99.90
13694;DHT22;6919;52.344;14.518;2023-04-29T07:05:16;13.20;99.90
13694;DHT22;6919;52.344;14.518;2023-04-29T07:07:45;13.20;99.90
13694;DHT22;6919;52.344;14.518;2023-04-29T07:10:13;12.90;99.90
13694;DHT22;6919;52.344;14.518;2023-04-29T07:12:41;12.70;99.90
13694;DHT22;6919;52.344;14.518;2023-04-29T07:15:10;12.50;99.90
13694;DHT22;6919;52.344;14.518;2023-04-29T07:17:38;12.40;99.90
13694;DHT22;6919;52.344;14.518;2023-04-29T07:20:10;12.30;99.90
13694;DHT22;6919;52.344;14.518;2023-04-29T07:22:39;12.20;99.90
13694;DHT22;6919;52.344;14.518;2023-04-29T07:25:07;12.30;99.90
13694;DHT22;6919;52.344;14.518;2023-04-29T07:27:36;12.40;99.90
13694;DHT22;6919;52.344;14.518;2023-04-29T07:30:06;12.40;99.90
13694;DHT22;6919;52.344;14.518;2023-04-29T07:32:35;12.40;99.90
13694;DHT22;6919;52.344;14.518;2023-04-29T07:35:04;12.60;99.90
13694;DHT22;6919;52.344;14.518;2023-04-29T07:37:35;12.70;99.90
13694;DHT22;6919;52.344;14.518;2023-04-29T07:40:04;12.60;99.90
13694;DHT22;6919;52.344;14.518;2023-04-29T07:42:33;12.60;99.90
13694;DHT22;6919;52.344;14.518;2023-04-29T07:45:01;12.60;99.90
13694;DHT22;6919;52.344;14.518;2023-04-29T07:47:30;12.50;99.90
13694;DHT22;6919;52.344;14.518;2023-04-29T07:49:58;12.60;99.90
13694;DHT22;6919;52.344;14.518;2023-04-29T07:52:27;12.60;99.90
13694;DHT22;6919;52.344;14.518;2023-04-29T07:54:57;12.60;99.90
13694;DHT22;6919;52.344;14.518;2023-04-29T07:57:26;12.60;99.90
13694;DHT22;6919;52.344;14.518;2023-04-29T07:59:54;12.50;99.90
13694;DHT22;6919;52.344;14.518;2023-04-29T08:02:22;12.80;99.90
13694;DHT22;6919;52.344;14.518;2023-04-29T08:04:51;12.80;99.90
13694;DHT22;6919;52.344;14.518;2023-04-29T08:07:22;12.60;99.90
13694;DHT22;6919;52.344;14.518;2023-04-29T08:09:50;12.40;99.90
13694;DHT22;6919;52.344;14.518;2023-04-29T08:12:21;12.40;99.90
13694;DHT22;6919;52.344;14.518;2023-04-29T08:14:49;12.20;99.90
13694;DHT22;6919;52.344;14.518;2023-04-29T08:17:17;12.30;99.90
13694;DHT22;6919;52.344;14.518;2023-04-29T08:19:46;12.30;99.90
13694;DHT22;6919;52.344;14.518;2023-04-29T08:22:14;12.30;99.90
13694;DHT22;6919;52.344;14.518;2023-04-29T08:24:42;12.30;99.90
13694;DHT22;6919;52.344;14.518;2023-04-29T08:27:11;12.20;99.90
13694;DHT22;6919;52.344;14.518;2023-04-29T08:29:40;12.30;99.90
13694;DHT22;6919;52.344;14.518;2023-04-29T08:32:09;12.30;99.90
13694;DHT22;6919;52.344;14.518;2023-04-29T08:34:37;12.50;99.90
13694;DHT22;6919;52.344;14.518;2023-04-29T08:37:07;12.40;99.90
13694;DHT22;6919;52.344;14.518;2023-04-29T08:39:35;12.40;99.90
13694;DHT22;6919;52.344;14.518;2023-04-29T08:42:07;12.30;99.90
13694;DHT22;6919;52.344;14.518;2023-04-29T08:44:36;12.30;99.90
13694;DHT22;6919;52.344;14.518;2023-04-29T08:47:08;12.30;99.90
13694;DHT22;6919;52.344;14.518;2023-04-29T08:49:37;12.30;99.90
13694;DHT22;6919;52.344;14.518;2023-04-29T08:52:05;12.30;99.90
13694;DHT22;6919;52.344;14.518;2023-04-29T08:54:34;12.40;99.90
13694;DHT22;6919;52.344;14.518;2023-04-29T08:57:03;12.50;99.90
13694;DHT22;6919;52.344;14.518;2023-04-29T08:59:33;12.50;99.90
13694;DHT22;6919;52.344;14.518;2023-04-29T09:02:05;12.60;99.90
13694;DHT22;6919;52.344;14.518;2023-04-29T09:04:46;12.50;99.90
13694;DHT22;6919;52.344;14.518;2023-04-29T09:07:17;12.60;99.90
13694;DHT22;6919;52.344;14.518;2023-04-29T09:09:47;12.60;99.90
13694;DHT22;6919;52.344;14.518;2023-04-29T09:12:16;12.70;99.90
13694;DHT22;6919;52.344;14.518;2023-04-29T09:14:45;12.80;99.90
13694;DHT22;6919;52.344;14.518;2023-04-29T09:17:15;12.70;99.90
13694;DHT22;6919;52.344;14.518;2023-04-29T09:19:44;12.70;99.90
13694;DHT22;6919;52.344;14.518;2023-04-29T09:22:12;12.80;99.90
13694;DHT22;6919;52.344;14.518;2023-04-29T09:24:40;12.80;99.90
13694;DHT22;6919;52.344;14.518;2023-04-29T09:27:25;12.90;99.90
13694;DHT22;6919;52.344;14.518;2023-04-29T09:30:00;12.90;99.90
13694;DHT22;6919;52.344;14.518;2023-04-29T09:32:29;13.00;99.90
13694;DHT22;6919;52.344;14.518;2023-04-29T09:34:58;13.00;99.90
13694;DHT22;6919;52.344;14.518;2023-04-29T09:37:46;12.90;99.90
13694;DHT22;6919;52.344;14.518;2023-04-29T09:40:27;12.90;99.90
13694;DHT22;6919;52.344;14.518;2023-04-29T09:43:13;13.00;99.90
13694;DHT22;6919;52.344;14.518;2023-04-29T09:45:45;12.90;99.90
13694;DHT22;6919;52.344;14.518;2023-04-29T09:48:19;12.80;99.90
13694;DHT22;6919;52.344;14.518;2023-04-29T09:50:59;12.90;99.90
13694;DHT22;6919;52.344;14.518;2023-04-29T09:53:30;13.00;99.90
13694;DHT22;6919;52.344;14.518;2023-04-29T09:56:00;13.00;99.90
13694;DHT22;6919;52.344;14.518;2023-04-29T09:58:30;13.00;99.90
13694;DHT22;6919;52.344;14.518;2023-04-29T10:01:04;13.00;99.90
13694;DHT22;6919;52.344;14.518;2023-04-29T10:03:36;12.90;99.90
13694;DHT22;6919;52.344;14.518;2023-04-29T10:06:06;13.00;99.90
13694;DHT22;6919;52.344;14.518;2023-04-29T10:08:35;13.10;99.90
13694;DHT22;6919;52.344;14.518;2023-04-29T10:11:03;13.00;99.90
13694;DHT22;6919;52.344;14.518;2023-04-29T10:13:34;13.00;99.90
13694;DHT22;6919;52.344;14.518;2023-04-29T10:16:10;13.20;99.90
13694;DHT22;6919;52.344;14.518;2023-04-29T10:18:53;13.30;99.90
13694;DHT22;6919;52.344;14.518;2023-04-29T10:21:27;13.70;99.90
13694;DHT22;6919;52.344;14.518;2023-04-29T10:23:58;13.80;99.90
13694;DHT22;6919;52.344;14.518;2023-04-29T10:26:31;13.80;99.90
13694;DHT22;6919;52.344;14.518;2023-04-29T10:29:04;13.70;99.90
13694;DHT22;6919;52.344;14.518;2023-04-29T10:31:37;13.80;99.90
13694;DHT22;6919;52.344;14.518;2023-04-29T10:34:08;13.80;99.90
13694;DHT22;6919;52.344;14.518;2023-04-29T10:36:37;13.90;99.90
13694;DHT22;6919;52.344;14.518;2023-04-29T10:39:10;13.80;99.90
13694;DHT22;6919;52.344;14.518;2023-04-29T10:41:44;13.70;99.90
13694;DHT22;6919;52.344;14.518;2023-04-29T10:44:13;13.30;99.90
13694;DHT22;6919;52.344;14.518;2023-04-29T10:46:42;13.30;99.90
13694;DHT22;6919;52.344;14.518;2023-04-29T10:49:12;13.20;99.90
13694;DHT22;6919;52.344;14.518;2023-04-29T10:51:42;13.00;99.90
13694;DHT22;6919;52.344;14.518;2023-04-29T10:54:13;12.90;99.90
13694;DHT22;6919;52.344;14.518;2023-04-29T10:56:43;12.80;99.90
13694;DHT22;6919;52.344;14.518;2023-04-29T10:59:17;12.60;99.90
13694;DHT22;6919;52.344;14.518;2023-04-29T11:01:49;12.80;99.90
13694;DHT22;6919;52.344;14.518;2023-04-29T11:04:21;12.90;99.90
13694;DHT22;6919;52.344;14.518;2023-04-29T11:06:52;13.00;99.90
13694;DHT22;6919;52.344;14.518;2023-04-29T11:09:25;13.00;99.90
13694;DHT22;6919;52.344;14.518;2023-04-29T11:12:00;13.00;99.90
13694;DHT22;6919;52.344;14.518;2023-04-29T11:14:34;13.10;99.90
13694;DHT22;6919;52.344;14.518;2023-04-29T11:17:07;13.00;99.90
13694;DHT22;6919;52.344;14.518;2023-04-29T11:19:40;12.80;99.90
13694;DHT22;6919;52.344;14.518;2023-04-29T11:22:24;12.50;99.90
13694;DHT22;6919;52.344;14.518;2023-04-29T11:24:55;12.40;99.90
13694;DHT22;6919;52.344;14.518;2023-04-29T11:27:28;12.50;99.90
13694;DHT22;6919;52.344;14.518;2023-04-29T11:29:59;12.50;99.90
13694;DHT22;6919;52.344;14.518;2023-04-29T11:32:31;12.50;99.90
13694;DHT22;6919;52.344;14.518;2023-04-29T11:35:10;12.30;99.90
13694;DHT22;6919;52.344;14.518;2023-04-29T11:37:41;12.40;99.90
13694;DHT22;6919;52.344;14.518;2023-04-29T11:40:12;12.30;99.90
13694;DHT22;6919;52.344;14.518;2023-04-29T11:42:43;12.30;99.90
13694;DHT22;6919;52.344;14.518;2023-04-29T11:45:13;12.30;99.90
13694;DHT22;6919;52.344;14.518;2023-04-29T11:47:47;12.30;99.90
13694;DHT22;6919;52.344;14.518;2023-04-29T11:50:18;12.30;99.90
13694;DHT22;6919;52.344;14.518;2023-04-29T11:52:47;12.20;99.90
13694;DHT22;6919;52.344;14.518;2023-04-29T11:55:18;12.10;99.90
13694;DHT22;6919;52.344;14.518;2023-04-29T11:57:48;12.20;99.90
13694;DHT22;6919;52.344;14.518;2023-04-29T12:00:18;12.20;99.90
13694;DHT22;6919;52.344;14.518;2023-04-29T12:02:47;12.10;99.90
13694;DHT22;6919;52.344;14.518;2023-04-29T12:05:17;12.20;99.90
13694;DHT22;6919;52.344;14.518;2023-04-29T12:07:45;12.00;99.90
13694;DHT22;6919;52.344;14.518;2023-04-29T12:10:16;12.00;99.90
13694;DHT22;6919;52.344;14.518;2023-04-29T12:12:45;12.00;99.90
13694;DHT22;6919;52.344;14.518;2023-04-29T12:15:14;11.90;99.90
13694;DHT22;6919;52.344;14.518;2023-04-29T12:17:42;12.00;99.90
13694;DHT22;6919;52.344;14.518;2023-04-29T12:20:12;11.90;99.90
13694;DHT22;6919;52.344;14.518;2023-04-29T12:22:43;11.80;99.90
13694;DHT22;6919;52.344;14.518;2023-04-29T12:25:12;11.80;99.90
13694;DHT22;6919;52.344;14.518;2023-04-29T12:27:40;11.80;99.90
13694;DHT22;6919;52.344;14.518;2023-04-29T12:30:10;11.90;99.90
13694;DHT22;6919;52.344;14.518;2023-04-29T12:32:39;11.80;99.90
13694;DHT22;6919;52.344;14.518;2023-04-29T12:35:14;11.80;99.90
13694;DHT22;6919;52.344;14.518;2023-04-29T12:37:47;11.90;99.90
13694;DHT22;6919;52.344;14.518;2023-04-29T12:40:16;11.90;99.90
13694;DHT22;6919;52.344;14.518;2023-04-29T12:42:46;11.80;99.90
13694;DHT22;6919;52.344;14.518;2023-04-29T12:45:29;11.90;99.90
13694;DHT22;6919;52.344;14.518;2023-04-29T12:47:59;11.80;99.90
13694;DHT22;6919;52.344;14.518;2023-04-29T12:50:35;11.80;99.90
13694;DHT22;6919;52.344;14.518;2023-04-29T12:53:08;12.00;99.90
13694;DHT22;6919;52.344;14.518;2023-04-29T12:55:37;12.20;99.90
13694;DHT22;6919;52.344;14.518;2023-04-29T12:58:06;12.40;99.90
13694;DHT22;6919;52.344;14.518;2023-04-29T13:00:35;12.70;99.90
13694;DHT22;6919;52.344;14.518;2023-04-29T13:03:04;13.00;99.90
13694;DHT22;6919;52.344;14.518;2023-04-29T13:05:33;13.10;99.90
13694;DHT22;6919;52.344;14.518;2023-04-29T13:08:02;13.20;99.90
13694;DHT22;6919;52.344;14.518;2023-04-29T13:10:33;13.40;99.90
13694;DHT22;6919;52.344;14.518;2023-04-29T13:13:02;13.40;99.90
13694;DHT22;6919;52.344;14.518;2023-04-29T13:15:31;13.60;99.90
13694;DHT22;6919;52.344;14.518;2023-04-29T13:18:00;13.80;99.90
13694;DHT22;6919;52.344;14.518;2023-04-29T13:20:28;14.10;99.90
13694;DHT22;6919;52.344;14.518;2023-04-29T13:22:57;14.30;90.60
13694;DHT22;6919;52.344;14.518;2023-04-29T13:25:25;14.50;1.00
13694;DHT22;6919;52.344;14.518;2023-04-29T13:27:55;14.70;1.00
13694;DHT22;6919;52.344;14.518;2023-04-29T13:30:23;15.00;1.00
13694;DHT22;6919;52.344;14.518;2023-04-29T13:32:52;15.20;1.00
13694;DHT22;6919;52.344;14.518;2023-04-29T13:35:29;15.50;1.00
13694;DHT22;6919;52.344;14.518;2023-04-29T13:37:58;16.10;99.90
13694;DHT22;6919;52.344;14.518;2023-04-29T13:40:27;16.60;99.90
13694;DHT22;6919;52.344;14.518;2023-04-29T13:42:56;17.20;99.90
13694;DHT22;6919;52.344;14.518;2023-04-29T13:45:34;17.20;1.00
13694;DHT22;6919;52.344;14.518;2023-04-29T13:48:09;17.10;99.90
13694;DHT22;6919;52.344;14.518;2023-04-29T13:50:57;16.80;1.00
13694;DHT22;6919;52.344;14.518;2023-04-29T13:53:29;16.40;1.00
13694;DHT22;6919;52.344;14.518;2023-04-29T13:56:00;16.00;1.00
13694;DHT22;6919;52.344;14.518;2023-04-29T13:58:49;15.70;1.00
13694;DHT22;6919;52.344;14.518;2023-04-29T14:01:38;15.40;99.90
13694;DHT22;6919;52.344;14.518;2023-04-29T14:04:20;15.10;26.10
13694;DHT22;6919;52.344;14.518;2023-04-29T14:06:49;14.90;1.00
13694;DHT22;6919;52.344;14.518;2023-04-29T14:09:17;14.70;1.00
13694;DHT22;6919;52.344;14.518;2023-04-29T14:11:46;14.50;1.00
13694;DHT22;6919;52.344;14.518;2023-04-29T14:14:16;14.30;1.00
13694;DHT22;6919;52.344;14.518;2023-04-29T14:16:44;14.10;1.00
13694;DHT22;6919;52.344;14.518;2023-04-29T14:19:13;14.00;1.00
13694;DHT22;6919;52.344;14.518;2023-04-29T14:21:41;13.80;1.00
13694;DHT22;6919;52.344;14.518;2023-04-29T14:24:10;13.70;1.00
13694;DHT22;6919;52.344;14.518;2023-04-29T14:26:38;13.60;1.00
13694;DHT22;6919;52.344;14.518;2023-04-29T14:29:07;13.60;1.00
13694;DHT22;6919;52.344;14.518;2023-04-29T14:31:37;13.50;1.00
13694;DHT22;6919;52.344;14.518;2023-04-29T14:34:05;13.60;1.00
13694;DHT22;6919;52.344;14.518;2023-04-29T14:36:33;13.60;1.00
13694;DHT22;6919;52.344;14.518;2023-04-29T14:39:02;13.80;1.00
13694;DHT22;6919;52.344;14.518;2023-04-29T14:41:30;13.90;1.00
13694;DHT22;6919;52.344;14.518;2023-04-29T14:43:58;14.10;1.00
13694;DHT22;6919;52.344;14.518;2023-04-29T14:46:28;14.20;1.00
13694;DHT22;6919;52.344;14.518;2023-04-29T14:48:59;14.20;11.90
13694;DHT22;6919;52.344;14.518;2023-04-29T14:51:27;14.30;1.00
13694;DHT22;6919;52.344;14.518;2023-04-29T14:53:56;14.40;1.00
13694;DHT22;6919;52.344;14.518;2023-04-29T14:56:25;14.40;1.00
13694;DHT22;6919;52.344;14.518;2023-04-29T14:58:53;14.30;1.00
13694;DHT22;6919;52.344;14.518;2023-04-29T15:01:21;14.20;1.00
13694;DHT22;6919;52.344;14.518;2023-04-29T15:03:50;14.10;1.00
13694;DHT22;6919;52.344;14.518;2023-04-29T15:06:21;13.90;1.00
13694;DHT22;6919;52.344;14.518;2023-04-29T15:08:49;14.10;99.90
13694;DHT22;6919;52.344;14.518;2023-04-29T15:11:18;14.30;99.90
13694;DHT22;6919;52.344;14.518;2023-04-29T15:13:47;14.10;19.60
13694;DHT22;6919;52.344;14.518;2023-04-29T15:16:15;14.20;1.00
13694;DHT22;6919;52.344;14.518;2023-04-29T15:18:44;14.10;99.90
13694;DHT22;6919;52.344;14.518;2023-04-29T15:21:12;14.10;99.90
13694;DHT22;6919;52.344;14.518;2023-04-29T15:23:42;14.20;99.90
13694;DHT22;6919;52.344;14.518;2023-04-29T15:26:11;14.30;99.90
13694;DHT22;6919;52.344;14.518;2023-04-29T15:28:40;14.30;99.90
13694;DHT22;6919;52.344;14.518;2023-04-29T15:31:09;14.50;99.90
13694;DHT22;6919;52.344;14.518;2023-04-29T15:33:37;14.50;1.00
13694;DHT22;6919;52.344;14.518;2023-04-29T15:36:06;14.60;1.00
13694;DHT22;6919;52.344;14.518;2023-04-29T15:38:34;14.50;99.90
13694;DHT22;6919;52.344;14.518;2023-04-29T15:41:05;14.50;99.90
13694;DHT22;6919;52.344;14.518;2023-04-29T15:43:33;14.50;1.00
13694;DHT22;6919;52.344;14.518;2023-04-29T15:46:02;14.50;42.80
13694;DHT22;6919;52.344;14.518;2023-04-29T15:48:30;14.30;99.90
13694;DHT22;6919;52.344;14.518;2023-04-29T15:50:59;14.40;1.00
13694;DHT22;6919;52.344;14.518;2023-04-29T15:53:27;14.50;1.00